Ban Nong Makok, Thailand

10:03 AM +07 on December 08, 2019 (GMT +0700)
Huay Yai BB3 | | Change Station

Elev 33 ft 12.86 °N, 100.93 °E | Updated 16 seconds ago

Partly Cloudy
Partly Cloudy
74.7 °F
Feels Like 76 °F
N
4.7
Wind Variable Wind from North
Gusts 7.6 mph

Today
High -- | Low -- °F
--% Chance of Precip.
Yesterday
High -- | Low -- °F
Precip. -- in
Pressure 30.06 in
Visibility 5.0 miles
Clouds Few 2000 ft
Scattered Clouds 10000 ft
Heat Index 76 °F
Dew Point 67 °F
Humidity 77%
Rainfall 0.00 in
Snow Depth Not available.
6:26 AM 5:49 PM
Waxing Gibbous, 83% visible
METAR VTBU 080100Z 02010KT 8000 FEW020 SCT100 21/10 Q1018 NOSIG
Pressure 30.06 in
Visibility 5.0 miles
Clouds Few 2000 ft
Scattered Clouds 10000 ft
Heat Index 76 °F
Dew Point 67 °F
Humidity 77%
Rainfall 0.00 in
Snow Depth Not available.
6:26 AM 5:49 PM
Waxing Gibbous, 83% visible
METAR VTBU 080100Z 02010KT 8000 FEW020 SCT100 21/10 Q1018 NOSIG

Get Severe Weather Alerts

Thanks for signing up!

Be on the lookout for a verification email in your inbox.

You'll start receiving the daily forecast at 6 AM.

×

10-Day Weather Forecast

No radar image for this location.
×

Almanac

Astronomy

Dec. 08, 2019 Rise Set
Actual Time
Civil Twilight
Nautical Twilight
Astronomical Twilight
Moon
Length of Visible Light
Length of Day
Tomorrow will be .
, % of the Moon is Illuminated

Today's Extremes

Country Highs Country Lows

Community

WunderPhotos

Category 6

Welcome to Category 6. This is the collective home for Weather Underground's featured writeups by Dr. Jeff Masters (right), Bob Henson (left), Chris Burt, and other regular contributors.

Nearby

Air Quality

  Air Quality AQ Index Pollutant
Not available.

Snow Depth

Station Depth Elevation

Earthquake Activity

City Distance Mag. Time & Date
Minimum magnitude displayed is 2.5.

Coastal Water Temperatures

Place Temperature

Stations

Nearby Weather Stations

Station Location Temp. Windchill Dew Point Humidity Wind Precip. Elev Updated Type